This is the latest recevied weather packets stored in our database for station/object DH5DY-6. If no packets are shown the sender has not sent any weather packets the latest 10 day(s).
| Time | Temp. | Humidity | Pressure | Rain* | Wind** | Luminosity | Snow |
|---|---|---|---|---|---|---|---|
| 1787865743 | 20° C | 86% | 1007.1 hPa | 0 mm | - | 0 W/m² | - |
| 1787865143 | 20° C | 87% | 1007.3 hPa | 0 mm | - | 0 W/m² | - |
| 1787863943 | 20° C | 88% | 1007.3 hPa | 0 mm | - | 0 W/m² | - |
| 1787862143 | 20.56° C | 87% | 1007.9 hPa | 0 mm | - | 0 W/m² | - |
| 1787861543 | 20.56° C | 87% | 1007.9 hPa | 0 mm | - | 0 W/m² | - |
| 1787859745 | 20.56° C | 85% | 1008 hPa | 0.25 mm | - | 0 W/m² | - |
| 1787858542 | 21.67° C | 83% | 1008.2 hPa | 0.25 mm | - | 0 W/m² | - |
| 1787856742 | 23.89° C | 70% | 1008.3 hPa | 0 mm | - | 0 W/m² | - |
| 1787854942 | 24.44° C | 66% | 1008.3 hPa | 0 mm | - | 0 W/m² | - |
| 1787854342 | 25° C | 64% | 1008.3 hPa | 0 mm | - | 5 W/m² | - |
| 1787853142 | 25.56° C | 58% | 1008.5 hPa | 0 mm | - | 12 W/m² | - |
| 1787851341 | 26.67° C | 58% | 1008.5 hPa | 0 mm | - | 44 W/m² | - |
| 1787850742 | 27.22° C | 58% | 1008.5 hPa | 0 mm | - | 51 W/m² | - |
| 1787849542 | 27.78° C | 57% | 1008.9 hPa | 0 mm | - | 69 W/m² | - |
| 1787848941 | 28.33° C | 57% | 1009.1 hPa | 0 mm | - | 163 W/m² | - |
| 1787847741 | 28.89° C | 57% | 1009.1 hPa | 0 mm | - | 104 W/m² | - |
| 1787847142 | 28.89° C | 52% | 1009.4 hPa | 0 mm | - | 141 W/m² | - |
| 1787845943 | 28.89° C | 49% | 1009.5 hPa | 0 mm | - | 160 W/m² | - |
| 1787845342 | 29.44° C | 48% | 1009.4 hPa | 0 mm | - | 169 W/m² | - |
| 1787844141 | 30° C | 49% | 1009.1 hPa | 0 mm | - | 250 W/m² | - |
| 1787843541 | 29.44° C | 50% | 1009.3 hPa | 0 mm | - | 272 W/m² | - |
| 1787840541 | 29.44° C | 50% | 1009.2 hPa | 0 mm | - | 373 W/m² | - |
| 1787839941 | 29.44° C | 52% | 1009.3 hPa | 0 mm | - | 359 W/m² | - |
| 1787838740 | 29.44° C | 51% | 1009.4 hPa | 0 mm | - | 264 W/m² | - |
| 1787838140 | 29.44° C | 51% | 1009.2 hPa | 0 mm | - | 327 W/m² | - |
* Rain latest hour (hover to see other rain measurements)
** Current wind speed in m/s (hover to see current wind gust speed)